createdAt,value
2022-10-10T00:00:34.005Z,83.94
2022-10-10T00:05:40.122Z,83.95
2022-10-10T00:10:42.000Z,83.89
2022-10-10T00:15:48.067Z,83.84
2022-10-10T00:20:52.695Z,83.83
2022-10-10T00:25:54.740Z,83.76
2022-10-10T00:30:56.534Z,83.72
2022-10-10T00:35:59.622Z,83.62
2022-10-10T00:41:02.150Z,83.56
2022-10-10T00:46:04.418Z,83.35
2022-10-10T00:51:10.168Z,83.20
2022-10-10T00:56:14.013Z,83.09
2022-10-10T01:01:15.985Z,82.94
2022-10-10T01:06:17.708Z,82.74
2022-10-10T01:11:22.340Z,82.53
2022-10-10T01:16:29.702Z,82.40
2022-10-10T01:21:51.025Z,82.23
2022-10-10T01:27:19.019Z,82.19
2022-10-10T01:32:29.515Z,82.14
2022-10-10T01:37:46.136Z,81.96
2022-10-10T01:42:53.325Z,82.00
2022-10-10T01:48:16.352Z,81.92
2022-10-10T01:53:39.189Z,81.82
2022-10-10T01:59:03.728Z,81.75
2022-10-10T02:04:15.821Z,81.65
2022-10-10T02:09:23.274Z,81.69
2022-10-10T02:14:31.454Z,81.72
2022-10-10T02:19:34.563Z,81.72
2022-10-10T02:24:36.614Z,81.79
2022-10-10T02:29:48.813Z,81.78
2022-10-10T02:35:17.289Z,81.68
2022-10-10T02:40:28.977Z,81.66
2022-10-10T02:45:33.352Z,81.67
2022-10-10T02:50:35.688Z,81.66
2022-10-10T02:55:37.966Z,81.73
2022-10-10T03:00:39.781Z,81.85
2022-10-10T03:05:42.074Z,81.87
2022-10-10T03:10:58.882Z,81.90
2022-10-10T03:16:00.615Z,81.98
2022-10-10T03:21:08.895Z,81.72
2022-10-10T03:26:10.818Z,81.82
2022-10-10T03:31:12.612Z,81.73
2022-10-10T03:36:14.714Z,81.65
2022-10-10T03:41:16.503Z,81.46
2022-10-10T03:46:18.357Z,81.47
2022-10-10T03:51:20.287Z,81.53
2022-10-10T03:56:22.068Z,81.54
2022-10-10T04:01:23.933Z,81.70
2022-10-10T04:06:26.056Z,81.83
2022-10-10T04:11:27.977Z,81.81
2022-10-10T04:16:29.649Z,81.91
2022-10-10T04:21:31.709Z,82.04
2022-10-10T04:26:33.465Z,82.26
2022-10-10T04:31:35.737Z,82.39
2022-10-10T04:36:37.450Z,82.69
2022-10-10T04:41:39.262Z,82.96
2022-10-10T04:46:41.119Z,83.16
2022-10-10T04:51:43.000Z,83.26
2022-10-10T04:56:46.010Z,83.51
2022-10-10T05:02:11.166Z,83.61
2022-10-10T05:07:26.528Z,83.76
2022-10-10T05:12:28.324Z,83.85
2022-10-10T05:17:34.264Z,84.02
2022-10-10T05:22:36.190Z,84.29
2022-10-10T05:27:38.113Z,84.42
2022-10-10T05:32:39.829Z,84.52
2022-10-10T05:37:41.635Z,84.71
2022-10-10T05:42:46.768Z,84.69
2022-10-10T05:47:48.478Z,84.48
2022-10-10T05:52:51.528Z,84.29
2022-10-10T05:57:54.257Z,84.07
2022-10-10T06:02:58.523Z,83.77
2022-10-10T06:08:07.822Z,83.32
2022-10-10T06:13:23.845Z,82.85
2022-10-10T06:18:26.495Z,82.55
2022-10-10T06:23:29.328Z,82.25
2022-10-10T06:28:31.414Z,81.93
2022-10-10T06:33:33.518Z,81.49
2022-10-10T06:38:39.412Z,81.12
2022-10-10T06:43:41.723Z,80.77
2022-10-10T06:48:43.998Z,80.38
2022-10-10T06:53:46.551Z,79.91
2022-10-10T06:58:49.056Z,79.62
2022-10-10T07:03:50.917Z,79.15
2022-10-10T07:08:52.632Z,79.08
2022-10-10T07:13:54.535Z,78.65
2022-10-10T07:18:56.200Z,78.34
2022-10-10T07:23:58.447Z,77.81
2022-10-10T07:29:00.371Z,77.28
2022-10-10T07:34:02.761Z,76.53
2022-10-10T07:39:04.481Z,75.84
2022-10-10T07:44:30.189Z,75.56
2022-10-10T07:49:43.389Z,75.11
2022-10-10T07:54:45.060Z,74.40
2022-10-10T07:59:47.001Z,73.58
2022-10-10T08:05:09.163Z,72.69
2022-10-10T08:10:23.293Z,72.12
2022-10-10T08:15:26.897Z,71.37
2022-10-10T08:20:30.832Z,70.84
2022-10-10T08:25:33.583Z,70.11
2022-10-10T08:30:41.114Z,69.48
2022-10-10T08:35:43.102Z,68.98
2022-10-10T08:40:57.563Z,67.97
2022-10-10T08:46:06.552Z,67.04
2022-10-10T08:51:14.822Z,66.45
2022-10-10T08:56:23.620Z,65.72
2022-10-10T09:01:33.799Z,65.12
2022-10-10T09:06:53.724Z,64.50
2022-10-10T09:12:14.535Z,64.25
2022-10-10T09:17:38.102Z,63.55
2022-10-10T09:22:53.183Z,63.41
2022-10-10T09:28:03.553Z,62.61
2022-10-10T09:33:23.572Z,61.67
2022-10-10T09:38:37.541Z,60.84
2022-10-10T09:43:41.039Z,60.15
2022-10-10T09:48:43.232Z,59.75
2022-10-10T09:53:47.597Z,59.27
2022-10-10T09:58:51.982Z,59.05
2022-10-10T10:04:30.131Z,58.47
2022-10-10T10:09:32.153Z,58.25
2022-10-10T10:14:38.812Z,57.68
2022-10-10T10:19:43.970Z,56.90
2022-10-10T10:24:45.847Z,56.54
2022-10-10T10:29:53.121Z,56.29
2022-10-10T10:35:07.965Z,55.87
2022-10-10T10:40:25.139Z,54.89
2022-10-10T10:45:45.514Z,54.56
2022-10-10T10:51:29.567Z,54.16
2022-10-10T10:56:46.404Z,53.49
2022-10-10T11:02:11.498Z,52.76
2022-10-10T11:07:22.523Z,52.58
2022-10-10T11:12:43.555Z,52.31
2022-10-10T11:17:51.279Z,51.79
2022-10-10T11:23:08.670Z,51.63
2022-10-10T11:28:22.390Z,51.41
2022-10-10T11:33:30.770Z,51.03
2022-10-10T11:38:59.789Z,50.54
2022-10-10T11:44:19.108Z,50.12
2022-10-10T11:49:42.640Z,50.05
2022-10-10T11:55:37.591Z,49.71
2022-10-10T12:00:46.124Z,49.52
2022-10-10T12:05:53.074Z,49.24
2022-10-10T12:11:05.699Z,49.03
2022-10-10T12:16:43.122Z,49.09
2022-10-10T12:22:09.095Z,48.77
2022-10-10T12:27:27.472Z,48.29
2022-10-10T12:32:43.671Z,48.20
2022-10-10T12:38:05.984Z,47.58
2022-10-10T12:43:26.190Z,47.38
2022-10-10T12:48:27.973Z,47.03
2022-10-10T12:53:33.399Z,46.79
2022-10-10T12:58:39.368Z,47.04
2022-10-10T13:04:02.245Z,46.72
2022-10-10T13:09:18.417Z,46.85
2022-10-10T13:14:21.069Z,46.78
2022-10-10T13:19:25.163Z,46.35
2022-10-10T13:24:31.983Z,46.52
2022-10-10T13:29:36.015Z,47.08
2022-10-10T13:34:42.499Z,47.09
2022-10-10T13:40:03.150Z,46.98
2022-10-10T13:45:30.282Z,47.03
2022-10-10T13:50:44.705Z,46.28
2022-10-10T13:55:59.993Z,46.55
2022-10-10T14:01:04.328Z,46.45
2022-10-10T14:06:08.009Z,46.68
2022-10-10T14:11:17.800Z,47.00
2022-10-10T14:16:20.170Z,47.39
2022-10-10T14:21:23.028Z,47.58
2022-10-10T14:26:25.137Z,47.82
2022-10-10T14:31:28.941Z,48.06
2022-10-10T14:36:30.826Z,48.23
2022-10-10T14:41:32.682Z,48.47
2022-10-10T14:46:35.015Z,48.78
2022-10-10T14:51:38.612Z,48.84
2022-10-10T14:57:08.237Z,49.29
2022-10-10T15:02:06.578Z,49.81
2022-10-10T15:07:14.365Z,50.04
2022-10-10T15:12:18.413Z,50.09
2022-10-10T15:17:20.319Z,50.11
2022-10-10T15:22:30.247Z,50.21
2022-10-10T15:27:32.835Z,50.57
2022-10-10T15:32:41.323Z,50.95
2022-10-10T15:37:43.613Z,51.37
2022-10-10T15:42:46.382Z,51.71
2022-10-10T15:47:48.326Z,52.06
2022-10-10T15:52:50.081Z,52.57
2022-10-10T15:57:51.792Z,53.14
2022-10-10T16:02:53.620Z,53.84
2022-10-10T16:08:07.516Z,54.54
2022-10-10T16:13:10.783Z,55.16
2022-10-10T16:18:12.696Z,55.84
2022-10-10T16:23:14.707Z,56.33
2022-10-10T16:28:16.667Z,56.85
2022-10-10T16:33:20.350Z,57.45
2022-10-10T16:38:22.047Z,58.26
2022-10-10T16:43:23.861Z,58.86
2022-10-10T16:48:25.765Z,59.40
2022-10-10T16:53:27.955Z,59.90
2022-10-10T16:58:30.011Z,60.37
2022-10-10T17:03:31.812Z,61.27
2022-10-10T17:08:34.197Z,61.89
2022-10-10T17:13:43.092Z,62.90
2022-10-10T17:18:44.946Z,63.14
2022-10-10T17:23:47.777Z,63.03
2022-10-10T17:28:50.417Z,63.01
2022-10-10T17:33:54.397Z,63.25
2022-10-10T17:39:03.795Z,63.66
2022-10-10T17:44:10.256Z,64.30
2022-10-10T17:49:12.421Z,64.44
2022-10-10T17:54:14.418Z,65.18
2022-10-10T17:59:16.156Z,65.78
2022-10-10T18:04:17.885Z,66.33
2022-10-10T18:09:20.176Z,66.10
2022-10-10T18:14:22.481Z,67.03
2022-10-10T18:19:24.823Z,67.43
2022-10-10T18:24:26.934Z,68.06
2022-10-10T18:29:28.746Z,69.21
2022-10-10T18:34:30.587Z,69.94
2022-10-10T18:39:35.636Z,69.68
2022-10-10T18:44:37.371Z,71.30
2022-10-10T18:49:39.087Z,71.59
2022-10-10T18:54:41.229Z,72.66
2022-10-10T18:59:43.250Z,73.37
2022-10-10T19:04:47.998Z,74.07
2022-10-10T19:09:50.112Z,74.39
2022-10-10T19:14:52.009Z,74.68
2022-10-10T19:19:53.909Z,75.16
2022-10-10T19:24:56.512Z,75.65
2022-10-10T19:29:59.330Z,75.91
2022-10-10T19:35:01.311Z,76.16
2022-10-10T19:40:03.566Z,76.88
2022-10-10T19:45:15.327Z,77.29
2022-10-10T19:50:26.421Z,77.92
2022-10-10T19:55:28.617Z,78.58
2022-10-10T20:00:30.532Z,79.11
2022-10-10T20:05:32.223Z,78.70
2022-10-10T20:10:34.332Z,78.85
2022-10-10T20:15:43.136Z,79.14
2022-10-10T20:20:48.326Z,79.41
2022-10-10T20:25:50.900Z,80.35
2022-10-10T20:30:53.951Z,80.50
2022-10-10T20:35:56.285Z,80.66
2022-10-10T20:41:05.413Z,80.86
2022-10-10T20:46:08.979Z,80.80
2022-10-10T20:51:13.649Z,80.86
2022-10-10T20:56:15.380Z,80.77
2022-10-10T21:01:21.330Z,80.30
2022-10-10T21:06:27.285Z,79.57
2022-10-10T21:11:29.038Z,79.55
2022-10-10T21:16:33.991Z,79.73
2022-10-10T21:21:38.382Z,80.17
2022-10-10T21:26:42.002Z,79.02
2022-10-10T21:31:43.922Z,78.05
2022-10-10T21:36:54.783Z,77.71
2022-10-10T21:41:56.486Z,77.82
2022-10-10T21:46:58.313Z,77.88
2022-10-10T21:52:00.373Z,78.13
2022-10-10T21:57:02.078Z,78.29
2022-10-10T22:02:03.948Z,78.09
2022-10-10T22:07:05.643Z,77.82
2022-10-10T22:12:27.262Z,77.59
2022-10-10T22:17:37.171Z,77.10
2022-10-10T22:22:41.359Z,76.30
2022-10-10T22:27:44.097Z,75.59
2022-10-10T22:32:45.893Z,74.90
2022-10-10T22:37:47.730Z,74.24
2022-10-10T22:42:50.156Z,73.62
2022-10-10T22:47:51.955Z,73.03
2022-10-10T22:52:53.775Z,72.36
2022-10-10T22:57:55.545Z,71.72
2022-10-10T23:02:58.464Z,71.18
2022-10-10T23:08:00.488Z,70.57
2022-10-10T23:13:09.559Z,69.88
2022-10-10T23:18:11.633Z,69.53
2022-10-10T23:23:14.127Z,69.05
2022-10-10T23:28:17.450Z,68.68
2022-10-10T23:33:19.276Z,68.29
2022-10-10T23:38:20.956Z,67.76
2022-10-10T23:43:23.924Z,67.50
2022-10-10T23:48:25.747Z,67.29
2022-10-10T23:53:27.609Z,67.09
2022-10-10T23:58:29.326Z,66.92
